createdAt,value
2022-12-17T00:02:22.067Z,-4.20
2022-12-17T00:06:41.222Z,-3.80
2022-12-17T00:11:00.599Z,-4.30
2022-12-17T00:15:19.982Z,-4.90
2022-12-17T00:19:39.223Z,-4.70
2022-12-17T00:23:59.295Z,-5.00
2022-12-17T00:28:18.588Z,-4.40
2022-12-17T00:32:37.925Z,-4.10
2022-12-17T00:36:57.417Z,-3.70
2022-12-17T00:41:16.900Z,-3.70
2022-12-17T00:45:36.253Z,-4.00
2022-12-17T00:49:56.271Z,-4.50
2022-12-17T00:54:15.682Z,-4.70
2022-12-17T00:58:35.221Z,-4.40
2022-12-17T01:02:54.841Z,-4.30
2022-12-17T01:07:15.913Z,-4.20
2022-12-17T01:11:35.357Z,-4.10
2022-12-17T01:15:54.868Z,-3.80
2022-12-17T01:20:16.273Z,-4.20
2022-12-17T01:24:35.877Z,-4.60
2022-12-17T01:28:55.312Z,-4.10
2022-12-17T01:33:24.151Z,-3.90
2022-12-17T01:37:43.593Z,-4.10
2022-12-17T01:42:03.195Z,-4.30
2022-12-17T01:46:22.500Z,-4.80
2022-12-17T01:50:45.709Z,-4.20
2022-12-17T01:55:06.138Z,-4.40
2022-12-17T01:59:27.054Z,-4.50
2022-12-17T02:03:46.553Z,-4.70
2022-12-17T02:08:21.591Z,-6.00
2022-12-17T02:12:47.648Z,-4.80
2022-12-17T02:17:09.813Z,-3.90
2022-12-17T02:21:30.850Z,-4.10
2022-12-17T02:25:57.386Z,-4.00
2022-12-17T02:30:23.271Z,-4.20
2022-12-17T02:34:42.641Z,-4.10
2022-12-17T02:39:02.142Z,-4.60
2022-12-17T02:43:22.473Z,-4.30
2022-12-17T02:47:42.970Z,-4.70
2022-12-17T02:52:02.819Z,-4.00
2022-12-17T02:56:22.739Z,-4.10
2022-12-17T03:00:42.287Z,-4.40
2022-12-17T03:05:15.357Z,-4.30
2022-12-17T03:09:22.767Z,-4.60
2022-12-17T03:13:45.923Z,-4.60
2022-12-17T03:18:05.412Z,-4.90
2022-12-17T03:22:25.199Z,-5.30
2022-12-17T03:26:44.852Z,-4.90
2022-12-17T03:31:04.822Z,-4.80
2022-12-17T03:35:24.571Z,-5.50
2022-12-17T03:39:44.027Z,-5.20
2022-12-17T03:44:03.561Z,-5.40
2022-12-17T03:48:28.020Z,-5.40
2022-12-17T03:52:47.352Z,-4.70
2022-12-17T03:57:09.541Z,-4.40
2022-12-17T04:01:28.346Z,-5.30
2022-12-17T04:05:48.089Z,-4.80
2022-12-17T04:10:07.356Z,-5.40
2022-12-17T04:14:26.646Z,-5.10
2022-12-17T04:18:46.161Z,-4.40
2022-12-17T04:23:05.593Z,-4.90
2022-12-17T04:27:25.044Z,-4.80
2022-12-17T04:31:44.745Z,-4.60
2022-12-17T04:36:04.005Z,-5.00
2022-12-17T04:40:24.160Z,-4.90
2022-12-17T04:44:43.383Z,-5.20
2022-12-17T04:49:02.819Z,-5.70
2022-12-17T04:53:23.798Z,-5.30
2022-12-17T04:57:43.119Z,-4.90
2022-12-17T05:02:02.695Z,-5.10
2022-12-17T05:06:22.521Z,-5.10
2022-12-17T05:10:41.863Z,-5.30
2022-12-17T05:15:01.339Z,-5.30
2022-12-17T05:19:20.700Z,-5.40
2022-12-17T05:23:40.170Z,-6.20
2022-12-17T05:27:59.572Z,-6.10
2022-12-17T05:32:19.020Z,-6.40
2022-12-17T05:36:38.620Z,-5.50
2022-12-17T05:40:58.555Z,-5.30
2022-12-17T05:45:18.162Z,-5.50
2022-12-17T05:49:37.380Z,-5.60
2022-12-17T05:53:56.740Z,-5.90
2022-12-17T05:58:21.703Z,-6.10
2022-12-17T06:02:41.802Z,-5.10
2022-12-17T06:07:01.522Z,-5.20
2022-12-17T06:11:21.120Z,-5.20
2022-12-17T06:15:41.128Z,-4.50
2022-12-17T06:20:00.547Z,-4.50
2022-12-17T06:24:19.984Z,-4.80
2022-12-17T06:28:41.226Z,-4.10
2022-12-17T06:33:02.332Z,-3.90
2022-12-17T06:37:21.622Z,-3.80
2022-12-17T06:41:41.112Z,-3.80
2022-12-17T06:46:00.487Z,-3.70
2022-12-17T06:50:19.808Z,-3.70
2022-12-17T06:54:39.196Z,-3.70
2022-12-17T06:58:58.575Z,-3.70
2022-12-17T07:03:18.085Z,-3.60
2022-12-17T07:07:37.525Z,-3.50
2022-12-17T07:11:57.646Z,-3.60
2022-12-17T07:16:01.005Z,-3.70
2022-12-17T07:20:21.875Z,-3.50
2022-12-17T07:24:42.113Z,-3.30
2022-12-17T07:29:02.136Z,-3.30
2022-12-17T07:33:25.722Z,-3.10
2022-12-17T07:37:46.393Z,-3.10
2022-12-17T07:42:07.253Z,-3.10
2022-12-17T07:46:13.633Z,-3.20
2022-12-17T07:50:33.492Z,-3.10
2022-12-17T07:54:53.515Z,-3.10
2022-12-17T07:59:14.318Z,-3.10
2022-12-17T08:03:35.465Z,-2.90
2022-12-17T08:07:57.614Z,-2.80
2022-12-17T08:12:20.575Z,-2.90
2022-12-17T08:16:41.360Z,-2.60
2022-12-17T08:21:03.045Z,-2.60
2022-12-17T08:25:24.493Z,-2.50
2022-12-17T08:29:45.192Z,-3.90
2022-12-17T08:34:08.163Z,-5.40
2022-12-17T08:38:28.416Z,-4.70
2022-12-17T08:42:49.060Z,-3.90
2022-12-17T08:47:08.257Z,-3.30
2022-12-17T08:51:28.896Z,-2.60
2022-12-17T08:55:48.601Z,-2.70
2022-12-17T09:00:08.067Z,-3.30
2022-12-17T09:04:27.623Z,-2.50
2022-12-17T09:08:46.789Z,-2.30
2022-12-17T09:13:06.252Z,-2.60
2022-12-17T09:17:25.628Z,-2.40
2022-12-17T09:21:46.682Z,-1.80
2022-12-17T09:26:13.673Z,-1.70
2022-12-17T09:30:33.467Z,-1.90
2022-12-17T09:34:52.861Z,-2.30
2022-12-17T09:39:13.028Z,-2.50
2022-12-17T09:43:57.781Z,-2.00
2022-12-17T09:48:49.957Z,-2.20
2022-12-17T09:53:09.646Z,-3.00
2022-12-17T09:57:31.891Z,-3.10
2022-12-17T10:01:52.806Z,-3.10
2022-12-17T10:06:16.730Z,-4.00
2022-12-17T10:10:38.738Z,-4.40
2022-12-17T10:14:58.053Z,-4.20
2022-12-17T10:19:17.479Z,-4.10
2022-12-17T10:23:45.620Z,-3.00
2022-12-17T10:28:04.923Z,-2.00
2022-12-17T10:32:34.585Z,-2.60
2022-12-17T10:36:54.042Z,-1.30
2022-12-17T10:41:13.900Z,-1.00
2022-12-17T10:45:45.485Z,-0.30
2022-12-17T10:49:55.162Z,-0.20
2022-12-17T10:54:14.800Z,0.60
2022-12-17T10:58:40.774Z,0.60
2022-12-17T11:03:05.457Z,0.90
2022-12-17T11:07:28.314Z,0.90
2022-12-17T11:11:47.935Z,1.20
2022-12-17T11:16:10.930Z,1.50
2022-12-17T11:20:43.642Z,-0.40
2022-12-17T11:25:06.747Z,1.00
2022-12-17T11:29:32.014Z,0.40
2022-12-17T11:34:01.471Z,-0.20
2022-12-17T11:38:41.760Z,0.70
2022-12-17T11:43:04.808Z,0.50
2022-12-17T11:47:43.531Z,1.80
2022-12-17T11:52:13.105Z,2.00
2022-12-17T11:56:57.958Z,2.60
2022-12-17T12:01:39.509Z,2.70
2022-12-17T12:06:14.594Z,3.20
2022-12-17T12:10:40.997Z,3.90
2022-12-17T12:15:19.727Z,4.10
2022-12-17T12:19:54.697Z,3.90
2022-12-17T12:24:27.002Z,4.30
2022-12-17T12:28:50.492Z,3.50
2022-12-17T12:33:29.011Z,3.60
2022-12-17T12:37:49.296Z,2.90
2022-12-17T12:42:05.367Z,3.70
2022-12-17T12:46:37.164Z,1.80
2022-12-17T12:51:06.545Z,2.20
2022-12-17T12:55:26.544Z,1.10
2022-12-17T12:59:48.432Z,1.10
2022-12-17T13:04:11.200Z,1.10
2022-12-17T13:08:23.917Z,0.90
2022-12-17T13:12:45.848Z,0.00
2022-12-17T13:16:53.817Z,-0.40
2022-12-17T13:20:59.070Z,-1.00
2022-12-17T13:25:18.424Z,-0.90
2022-12-17T13:29:29.165Z,-1.80
2022-12-17T13:33:51.794Z,-1.00
2022-12-17T13:38:02.654Z,-1.90
2022-12-17T13:42:04.112Z,-1.70
2022-12-17T13:46:05.380Z,-1.90
2022-12-17T13:50:36.721Z,-1.70
2022-12-17T13:54:34.558Z,-2.10
2022-12-17T13:58:36.320Z,-2.70
2022-12-17T14:02:38.642Z,-2.90
2022-12-17T14:06:39.905Z,-2.60
2022-12-17T14:10:47.732Z,-1.70
2022-12-17T14:14:53.726Z,-0.90
2022-12-17T14:18:57.465Z,-0.40
2022-12-17T14:23:14.207Z,0.40
2022-12-17T14:27:25.257Z,0.60
2022-12-17T14:31:28.597Z,0.50
2022-12-17T14:35:36.830Z,0.90
2022-12-17T14:39:41.873Z,0.50
2022-12-17T14:44:02.915Z,0.70
2022-12-17T14:48:06.267Z,0.70
2022-12-17T14:52:12.883Z,0.40
2022-12-17T14:56:23.071Z,0.60
2022-12-17T15:00:24.093Z,0.50
2022-12-17T15:04:25.276Z,0.00
2022-12-17T15:08:30.189Z,-0.80
2022-12-17T15:12:31.289Z,-0.40
2022-12-17T15:16:32.416Z,-0.50
2022-12-17T15:20:33.494Z,-0.90
2022-12-17T15:24:37.102Z,-0.70
2022-12-17T15:28:39.320Z,-1.50
2022-12-17T15:32:40.835Z,-1.10
2022-12-17T15:36:41.952Z,-1.10
2022-12-17T15:40:43.098Z,-1.20
2022-12-17T15:44:44.989Z,-1.80
2022-12-17T15:48:50.487Z,-1.70
2022-12-17T15:52:49.534Z,-1.40
2022-12-17T15:56:54.550Z,-1.80
2022-12-17T16:00:56.442Z,-1.70
2022-12-17T16:04:57.406Z,-2.10
2022-12-17T16:08:58.793Z,-2.30
2022-12-17T16:12:59.939Z,-2.50
2022-12-17T16:17:00.870Z,-2.20
2022-12-17T16:21:04.190Z,-2.70
2022-12-17T16:25:06.351Z,-2.80
2022-12-17T16:29:07.486Z,-3.40
2022-12-17T16:33:08.633Z,-3.40
2022-12-17T16:37:10.146Z,-2.40
2022-12-17T16:41:12.293Z,-2.50
2022-12-17T16:45:13.304Z,-2.50
2022-12-17T16:49:17.669Z,-2.20
2022-12-17T16:53:19.402Z,-2.40
2022-12-17T16:57:20.968Z,-3.70
2022-12-17T17:01:27.930Z,-4.60
2022-12-17T17:05:33.505Z,-4.20
2022-12-17T17:09:34.769Z,-3.90
2022-12-17T17:13:36.731Z,-3.10
2022-12-17T17:17:55.909Z,-3.10
2022-12-17T17:21:43.720Z,-3.40
2022-12-17T17:25:58.470Z,-3.30
2022-12-17T17:29:47.786Z,-3.40
2022-12-17T17:33:50.541Z,-4.40
2022-12-17T17:37:52.026Z,-3.80
2022-12-17T17:41:53.152Z,-3.30
2022-12-17T17:45:58.266Z,-3.40
2022-12-17T17:49:59.265Z,-3.60
2022-12-17T17:54:01.895Z,-3.80
2022-12-17T17:58:02.920Z,-3.90
2022-12-17T18:02:04.281Z,-4.40
2022-12-17T18:06:08.011Z,-4.10
2022-12-17T18:10:09.906Z,-3.90
2022-12-17T18:14:12.658Z,-4.00
2022-12-17T18:18:14.989Z,-4.30
2022-12-17T18:22:18.583Z,-5.00
2022-12-17T18:26:22.088Z,-4.30
2022-12-17T18:30:23.976Z,-4.10
2022-12-17T18:34:26.968Z,-4.30
2022-12-17T18:38:28.267Z,-4.90
2022-12-17T18:42:48.008Z,-4.90
2022-12-17T18:46:49.150Z,-4.30
2022-12-17T18:50:50.241Z,-4.40
2022-12-17T18:54:51.391Z,-4.70
2022-12-17T18:58:54.412Z,-3.90
2022-12-17T19:02:55.641Z,-3.90
2022-12-17T19:06:56.804Z,-4.30
2022-12-17T19:11:05.120Z,-4.30
2022-12-17T19:15:07.247Z,-4.60
2022-12-17T19:19:10.770Z,-4.90
2022-12-17T19:23:12.139Z,-4.80
2022-12-17T19:27:13.494Z,-5.00
2022-12-17T19:31:15.854Z,-5.10
2022-12-17T19:35:17.057Z,-5.00
2022-12-17T19:39:19.500Z,-5.00
2022-12-17T19:43:20.740Z,-5.90
2022-12-17T19:47:23.273Z,-5.40
2022-12-17T19:51:27.534Z,-4.90
2022-12-17T19:55:28.805Z,-6.30
2022-12-17T19:59:29.915Z,-6.40
2022-12-17T20:03:31.133Z,-5.40
2022-12-17T20:07:32.474Z,-4.90
2022-12-17T20:11:35.775Z,-5.10
2022-12-17T20:15:37.691Z,-4.80
2022-12-17T20:19:38.846Z,-5.30
2022-12-17T20:23:40.220Z,-4.90
2022-12-17T20:27:43.379Z,-4.70
2022-12-17T20:31:49.701Z,-4.80
2022-12-17T20:35:50.385Z,-4.40
2022-12-17T20:39:51.886Z,-4.90
2022-12-17T20:43:54.216Z,-4.70
2022-12-17T20:47:55.397Z,-4.90
2022-12-17T20:51:56.660Z,-4.70
2022-12-17T20:56:03.682Z,-5.50
2022-12-17T21:00:05.731Z,-4.80
2022-12-17T21:04:07.270Z,-4.70
2022-12-17T21:08:08.740Z,-4.60
2022-12-17T21:12:11.772Z,-4.60
2022-12-17T21:16:16.306Z,-4.60
2022-12-17T21:20:17.366Z,-4.40
2022-12-17T21:24:18.950Z,-4.30
2022-12-17T21:28:25.636Z,-3.90
2022-12-17T21:32:33.333Z,-3.70
2022-12-17T21:36:31.817Z,-3.10
2022-12-17T21:40:35.218Z,-2.50
2022-12-17T21:44:36.527Z,-2.70
2022-12-17T21:48:42.155Z,-2.50
2022-12-17T21:52:43.573Z,-2.10
2022-12-17T21:56:44.729Z,-2.00
2022-12-17T22:00:46.609Z,-2.00
2022-12-17T22:04:48.615Z,-2.10
2022-12-17T22:08:49.858Z,-2.20
2022-12-17T22:13:11.420Z,-2.80
2022-12-17T22:17:12.449Z,-2.60
2022-12-17T22:21:13.706Z,-2.30
2022-12-17T22:25:15.467Z,-2.90
2022-12-17T22:29:21.333Z,-2.20
2022-12-17T22:34:06.604Z,-1.50
2022-12-17T22:40:39.409Z,-2.20
2022-12-17T22:44:33.896Z,-2.70
2022-12-17T22:45:50.084Z,-2.80
2022-12-17T22:49:51.119Z,-2.70
2022-12-17T22:53:53.332Z,-2.40
2022-12-17T22:57:54.815Z,-1.60
2022-12-17T23:01:56.170Z,-2.00
2022-12-17T23:06:12.863Z,-1.70
2022-12-17T23:10:13.916Z,-1.90
2022-12-17T23:14:15.777Z,-2.00
2022-12-17T23:18:16.790Z,-2.20
2022-12-17T23:22:22.183Z,-2.30
2022-12-17T23:26:24.239Z,-2.70
2022-12-17T23:30:25.454Z,-1.90
2022-12-17T23:34:26.477Z,-1.90
2022-12-17T23:38:27.551Z,-3.10
2022-12-17T23:42:28.596Z,-2.90
2022-12-17T23:46:30.313Z,-1.90
2022-12-17T23:50:31.448Z,-1.90
2022-12-17T23:54:32.550Z,-1.60
2022-12-17T23:58:34.386Z,-2.50
